Terminal Aerodrome Forecast
Issued by NWS

Home | Current Version | Previous Version | Text Only | Print | Product List | Glossary On
Versions: 1 2 3 4 5 6 7 8 9 10 11 12 13 14 15 16 17 18 19 20 21 22 23 24 25 26 27
000
FTUS41 KCTP 201201 RRA
TAFJST
TAF
KJST 201201Z 2012/2112 24021G32KT P6SM SKC WS015/26051KT
     FM201500 25018G26KT P6SM BKN250 WS015/27050KT
     FM202100 26012G22KT P6SM OVC030 WS020/28045KT
     FM210100 26012KT P6SM OVC015=

USA.gov is the U.S. government's official web portal to all federal, state and local government web resources and services.